Time;durP1;ratioP1;P1;durP2;ratioP2;P2;SDS_P1;SDS_P2;PMS_P1;PMS_P2;Temp;Humidity;BMP_temperature;BMP_pressure;BME280_temperature;BME280_humidity;BME280_pressure;Samples;Min_cycle;Max_cycle;Signal;HPM_P1;HPM_P2
2023/09/08 00:01:52;;;;;;;5.43;1.92;;;;;;;;;;5074859;28;20060;-59
2023/09/08 00:04:24;;;;;;;2.75;1.95;;;;;;;;;;5074838;28;20052;-59
2023/09/08 00:06:54;;;;;;;3.95;2.30;;;;;;;;;;5074696;28;20136;-59
2023/09/08 00:09:21;;;;;;;3.72;2.00;;;;;;;;;;5072364;28;20067;-59
2023/09/08 00:11:49;;;;;;;2.85;2.08;;;;;;;;;;5074418;28;20044;-59
2023/09/08 00:14:18;;;;;;;3.15;2.20;;;;;;;;;;5074414;28;20417;-59
2023/09/08 00:16:48;;;;;;;3.58;2.33;;;;;;;;;;5074332;28;20512;-59
2023/09/08 00:19:15;;;;;;;4.00;2.25;;;;;;;;;;5074256;28;20052;-58
2023/09/08 00:21:45;;;;;;;3.05;1.98;;;;;;;;;;5074202;28;20052;-58
2023/09/08 00:24:13;;;;;;;5.07;2.00;;;;;;;;;;5072930;28;20064;-59
2023/09/08 00:26:48;;;;;;;3.92;2.08;;;;;;;;;;5074358;28;20489;-59
2023/09/08 00:29:16;;;;;;;3.83;2.30;;;;;;;;;;5073931;28;20055;-59
2023/09/08 00:31:48;;;;;;;3.33;2.13;;;;;;;;;;5074032;28;20053;-60
2023/09/08 00:34:17;;;;;;;3.50;2.10;;;;;;;;;;5073994;28;20052;-58
2023/09/08 00:36:52;;;;;;;3.50;2.17;;;;;;;;;;5073795;28;20061;-59
2023/09/08 00:39:22;;;;;;;3.45;2.05;;;;;;;;;;5074243;28;20053;-59
2023/09/08 00:41:53;;;;;;;3.67;2.50;;;;;;;;;;5073961;28;20469;-58
2023/09/08 00:44:21;;;;;;;3.85;2.28;;;;;;;;;;5074077;28;20056;-59
2023/09/08 00:46:48;;;;;;;4.07;1.80;;;;;;;;;;5073749;28;20052;-58
2023/09/08 00:49:15;;;;;;;2.78;1.70;;;;;;;;;;5073583;28;20051;-59
2023/09/08 00:51:42;;;;;;;3.08;1.98;;;;;;;;;;5073787;28;20056;-59
2023/09/08 00:54:09;;;;;;;3.22;2.03;;;;;;;;;;5073984;28;20056;-58
2023/09/08 00:56:35;;;;;;;4.55;2.40;;;;;;;;;;5073745;28;20052;-58
2023/09/08 00:59:03;;;;;;;3.10;2.10;;;;;;;;;;5073536;28;20059;-59
2023/09/08 01:01:31;;;;;;;3.63;2.33;;;;;;;;;;5073569;28;20048;-59
2023/09/08 01:03:58;;;;;;;4.95;2.38;;;;;;;;;;5073899;28;20075;-59
2023/09/08 01:06:25;;;;;;;4.78;2.10;;;;;;;;;;5073571;28;20059;-59
2023/09/08 01:08:52;;;;;;;3.00;2.17;;;;;;;;;;5073438;28;20057;-59
2023/09/08 01:11:20;;;;;;;4.47;2.70;;;;;;;;;;5073450;28;20413;-59
2023/09/08 01:13:47;;;;;;;4.10;2.03;;;;;;;;;;5073559;28;20056;-59
2023/09/08 01:16:13;;;;;;;3.90;2.45;;;;;;;;;;5073251;28;20045;-59
2023/09/08 01:18:41;;;;;;;3.70;2.72;;;;;;;;;;5073602;28;20049;-59
2023/09/08 01:21:26;;;;;;;3.15;2.15;;;;;;;;;;5073495;28;20055;-59
2023/09/08 01:24:04;;;;;;;4.03;2.65;;;;;;;;;;5073351;28;20048;-59
2023/09/08 01:26:36;;;;;;;2.55;1.70;;;;;;;;;;5073145;28;20500;-60
2023/09/08 01:29:04;;;;;;;4.18;2.50;;;;;;;;;;5072888;28;20048;-59
2023/09/08 01:31:31;;;;;;;3.47;2.00;;;;;;;;;;5072729;28;20414;-59
2023/09/08 01:33:58;;;;;;;3.88;2.30;;;;;;;;;;5072833;28;20052;-59
2023/09/08 01:36:25;;;;;;;2.92;1.98;;;;;;;;;;5072623;28;20053;-58
2023/09/08 01:38:52;;;;;;;3.45;1.88;;;;;;;;;;5072910;28;20056;-59
2023/09/08 01:41:18;;;;;;;5.05;2.53;;;;;;;;;;5073068;28;20059;-59
2023/09/08 01:43:47;;;;;;;5.85;2.78;;;;;;;;;;5073201;28;20056;-59
2023/09/08 01:46:13;;;;;;;3.25;2.17;;;;;;;;;;5072707;28;20055;-58
2023/09/08 01:48:40;;;;;;;3.63;2.50;;;;;;;;;;5073108;28;20059;-58
2023/09/08 01:51:07;;;;;;;4.05;2.25;;;;;;;;;;5072890;28;20052;-58
2023/09/08 01:53:34;;;;;;;3.45;2.58;;;;;;;;;;5073027;28;20059;-58
2023/09/08 01:56:00;;;;;;;7.32;2.60;;;;;;;;;;5073021;28;20052;-59
2023/09/08 01:58:27;;;;;;;3.40;2.50;;;;;;;;;;5072908;28;20454;-59
2023/09/08 02:01:00;;;;;;;4.38;2.30;;;;;;;;;;5072785;28;20053;-59
2023/09/08 02:03:26;;;;;;;3.75;1.92;;;;;;;;;;5072862;28;20048;-59
2023/09/08 02:05:53;;;;;;;4.97;2.67;;;;;;;;;;5072274;28;20062;-59
2023/09/08 02:08:20;;;;;;;5.78;2.33;;;;;;;;;;5072751;28;20056;-58
2023/09/08 02:10:47;;;;;;;3.28;2.60;;;;;;;;;;5072501;28;20063;-59
2023/09/08 02:13:13;;;;;;;3.60;2.58;;;;;;;;;;5072608;28;20053;-59
2023/09/08 02:15:40;;;;;;;4.20;2.40;;;;;;;;;;5072415;28;20405;-59
2023/09/08 02:18:09;;;;;;;4.22;2.10;;;;;;;;;;5072604;28;20056;-59
2023/09/08 02:20:36;;;;;;;3.65;2.25;;;;;;;;;;5072642;28;20057;-59
2023/09/08 02:23:05;;;;;;;5.57;2.50;;;;;;;;;;5072460;28;20063;-59
2023/09/08 02:25:31;;;;;;;5.65;2.50;;;;;;;;;;5072592;28;20056;-58
2023/09/08 02:27:58;;;;;;;3.42;2.30;;;;;;;;;;5072458;28;20500;-59
2023/09/08 02:30:25;;;;;;;5.13;2.75;;;;;;;;;;5072598;28;20049;-59
2023/09/08 02:32:52;;;;;;;4.28;2.60;;;;;;;;;;5072500;28;20052;-59
2023/09/08 02:35:20;;;;;;;4.63;2.58;;;;;;;;;;5072184;28;20068;-59
2023/09/08 02:37:47;;;;;;;3.83;2.63;;;;;;;;;;5072465;28;20492;-59
2023/09/08 02:40:13;;;;;;;3.97;2.97;;;;;;;;;;5072507;28;20504;-59
2023/09/08 02:42:40;;;;;;;5.38;2.63;;;;;;;;;;5074406;28;20123;-58
2023/09/08 02:45:08;;;;;;;3.10;2.22;;;;;;;;;;5075894;28;20080;-59
2023/09/08 02:47:34;;;;;;;3.55;2.25;;;;;;;;;;5072159;28;20405;-59
2023/09/08 02:50:03;;;;;;;3.78;2.50;;;;;;;;;;5076410;28;20477;-59
2023/09/08 02:52:31;;;;;;;3.63;2.58;;;;;;;;;;5076135;28;20075;-59
2023/09/08 02:54:58;;;;;;;3.50;2.28;;;;;;;;;;5075974;28;20048;-59
2023/09/08 02:57:25;;;;;;;3.30;2.10;;;;;;;;;;5075935;28;20421;-58
2023/09/08 02:59:52;;;;;;;4.53;2.28;;;;;;;;;;5073582;28;20413;-59
2023/09/08 03:02:19;;;;;;;3.83;2.40;;;;;;;;;;5075685;28;20060;-59
2023/09/08 03:04:45;;;;;;;3.00;2.03;;;;;;;;;;5075973;28;20386;-59
2023/09/08 03:07:12;;;;;;;4.35;2.63;;;;;;;;;;5075630;28;20049;-59
2023/09/08 03:09:40;;;;;;;6.13;2.55;;;;;;;;;;5074891;28;20049;-59
2023/09/08 03:12:07;;;;;;;3.28;2.10;;;;;;;;;;5075795;28;20064;-59
2023/09/08 03:14:36;;;;;;;3.90;2.72;;;;;;;;;;5075753;28;20056;-59
2023/09/08 03:17:03;;;;;;;5.95;2.35;;;;;;;;;;5075640;28;20040;-59
2023/09/08 03:19:30;;;;;;;2.80;2.22;;;;;;;;;;5075253;28;20063;-59
2023/09/08 03:21:57;;;;;;;5.80;2.30;;;;;;;;;;5075703;28;20370;-59
2023/09/08 03:24:27;;;;;;;3.80;2.35;;;;;;;;;;5075294;28;20060;-59
2023/09/08 03:26:59;;;;;;;4.07;2.45;;;;;;;;;;5075360;28;20048;-59
2023/09/08 03:29:28;;;;;;;4.43;2.45;;;;;;;;;;5075606;28;20056;-58
2023/09/08 03:31:54;;;;;;;3.72;2.00;;;;;;;;;;5075626;28;20048;-59
2023/09/08 03:34:21;;;;;;;3.92;2.47;;;;;;;;;;5075314;28;20052;-59
2023/09/08 03:36:58;;;;;;;3.63;2.40;;;;;;;;;;5073664;28;20052;-59
2023/09/08 03:39:28;;;;;;;4.70;2.85;;;;;;;;;;5073796;28;20052;-59
2023/09/08 03:41:56;;;;;;;5.63;3.67;;;;;;;;;;5074061;28;20053;-59
2023/09/08 03:44:23;;;;;;;5.13;2.90;;;;;;;;;;5074317;28;20071;-59
2023/09/08 03:46:53;;;;;;;4.13;2.47;;;;;;;;;;5074007;28;20048;-58
2023/09/08 03:49:23;;;;;;;3.95;2.65;;;;;;;;;;5074058;28;20485;-60
2023/09/08 03:51:51;;;;;;;4.78;2.97;;;;;;;;;;5073750;28;20052;-60
2023/09/08 03:54:20;;;;;;;4.50;3.10;;;;;;;;;;5073508;28;20410;-60
2023/09/08 03:56:47;;;;;;;5.55;2.47;;;;;;;;;;5073598;28;20497;-59
2023/09/08 03:59:15;;;;;;;4.20;2.75;;;;;;;;;;5073409;28;20064;-60
2023/09/08 04:01:42;;;;;;;2.42;1.70;;;;;;;;;;5074015;28;20048;-60
2023/09/08 04:04:09;;;;;;;3.47;2.53;;;;;;;;;;5073830;28;20056;-60
2023/09/08 04:06:36;;;;;;;3.25;2.22;;;;;;;;;;5073589;28;20403;-60
2023/09/08 04:09:02;;;;;;;3.30;2.30;;;;;;;;;;5073460;28;20418;-60
2023/09/08 04:11:29;;;;;;;3.78;2.75;;;;;;;;;;5073443;28;20049;-59
2023/09/08 04:13:56;;;;;;;4.60;2.70;;;;;;;;;;5073925;28;20493;-59
2023/09/08 04:16:24;;;;;;;4.88;2.78;;;;;;;;;;5073354;28;20486;-60
2023/09/08 04:18:51;;;;;;;5.93;2.80;;;;;;;;;;5073121;28;20063;-59
2023/09/08 04:21:18;;;;;;;4.63;2.67;;;;;;;;;;5073194;28;20056;-60
2023/09/08 04:23:44;;;;;;;3.95;2.53;;;;;;;;;;5073881;28;20465;-59
2023/09/08 04:26:11;;;;;;;4.35;2.13;;;;;;;;;;5072884;28;20048;-60
2023/09/08 04:28:38;;;;;;;3.60;2.20;;;;;;;;;;5073365;28;20465;-59
2023/09/08 04:31:05;;;;;;;4.85;2.88;;;;;;;;;;5073213;28;20063;-60
2023/09/08 04:33:33;;;;;;;4.28;2.72;;;;;;;;;;5073458;28;20081;-60
2023/09/08 04:36:00;;;;;;;2.90;2.47;;;;;;;;;;5027385;28;1316148;-60
2023/09/08 04:38:27;;;;;;;3.92;2.45;;;;;;;;;;5074448;28;20056;-60
2023/09/08 04:40:53;;;;;;;3.70;2.45;;;;;;;;;;5074129;28;20048;-60
2023/09/08 04:43:20;;;;;;;3.80;2.35;;;;;;;;;;5074265;28;20063;-60
2023/09/08 04:45:47;;;;;;;5.80;2.33;;;;;;;;;;5073763;28;20053;-59
2023/09/08 04:48:14;;;;;;;4.10;2.80;;;;;;;;;;5074087;28;20071;-60
2023/09/08 04:50:42;;;;;;;5.72;2.60;;;;;;;;;;5073745;28;20405;-60
2023/09/08 04:53:08;;;;;;;3.53;1.95;;;;;;;;;;5073936;28;20063;-60
2023/09/08 04:55:35;;;;;;;6.05;2.78;;;;;;;;;;5073978;28;20432;-60
2023/09/08 04:58:02;;;;;;;3.70;2.13;;;;;;;;;;5073976;28;20382;-60
2023/09/08 05:00:29;;;;;;;3.92;2.17;;;;;;;;;;5073410;28;20052;-59
2023/09/08 05:02:55;;;;;;;3.63;2.50;;;;;;;;;;5072945;28;20068;-60
2023/09/08 05:05:22;;;;;;;3.65;2.40;;;;;;;;;;5072510;28;20401;-60
2023/09/08 05:07:51;;;;;;;5.03;2.90;;;;;;;;;;5073084;28;20059;-59
2023/09/08 05:10:19;;;;;;;4.38;3.10;;;;;;;;;;5070889;28;20071;-60
2023/09/08 05:12:46;;;;;;;4.78;2.92;;;;;;;;;;5073431;28;20512;-60
2023/09/08 05:15:15;;;;;;;4.20;2.67;;;;;;;;;;5073857;28;20465;-60
2023/09/08 05:17:42;;;;;;;5.50;3.42;;;;;;;;;;5073455;28;20053;-60
2023/09/08 05:20:09;;;;;;;4.85;3.03;;;;;;;;;;5073372;28;20053;-60
2023/09/08 05:22:36;;;;;;;4.05;2.17;;;;;;;;;;5073220;28;20083;-60
2023/09/08 05:25:04;;;;;;;3.30;2.35;;;;;;;;;;5073060;28;20052;-60
2023/09/08 05:27:31;;;;;;;4.28;3.10;;;;;;;;;;5073230;28;20052;-60
2023/09/08 05:29:58;;;;;;;5.43;2.95;;;;;;;;;;5073112;28;20059;-60
2023/09/08 05:32:25;;;;;;;7.68;3.22;;;;;;;;;;5072911;28;20048;-60
2023/09/08 05:34:52;;;;;;;3.83;2.58;;;;;;;;;;5072882;28;20060;-60
2023/09/08 05:37:18;;;;;;;3.72;2.45;;;;;;;;;;5072698;28;20052;-59
2023/09/08 05:39:45;;;;;;;4.78;3.17;;;;;;;;;;5072739;28;20071;-60
2023/09/08 05:42:13;;;;;;;3.33;2.50;;;;;;;;;;5073333;28;20397;-60
2023/09/08 05:44:40;;;;;;;3.22;2.13;;;;;;;;;;5073379;28;20064;-60
2023/09/08 05:47:07;;;;;;;4.53;3.03;;;;;;;;;;5073047;28;20055;-60
2023/09/08 05:49:34;;;;;;;6.63;2.83;;;;;;;;;;5072830;28;20490;-60
2023/09/08 05:52:01;;;;;;;5.82;2.88;;;;;;;;;;5072923;28;20059;-59
2023/09/08 05:54:29;;;;;;;4.18;2.58;;;;;;;;;;5072901;28;20055;-60
2023/09/08 05:56:56;;;;;;;3.87;2.70;;;;;;;;;;5072940;28;20052;-59
2023/09/08 05:59:24;;;;;;;3.67;2.53;;;;;;;;;;5072882;28;20470;-60
2023/09/08 06:01:51;;;;;;;3.30;2.10;;;;;;;;;;5072494;28;20056;-59
2023/09/08 06:04:18;;;;;;;4.80;3.08;;;;;;;;;;5072821;28;20075;-60
2023/09/08 06:06:45;;;;;;;4.65;2.78;;;;;;;;;;5072585;28;20060;-60
2023/09/08 06:09:14;;;;;;;5.03;2.78;;;;;;;;;;5072858;28;20063;-60
2023/09/08 06:11:41;;;;;;;4.03;2.65;;;;;;;;;;5052758;28;20074;-60
2023/09/08 06:14:07;;;;;;;5.18;2.70;;;;;;;;;;5052676;28;20057;-60
2023/09/08 06:16:37;;;;;;;6.47;3.25;;;;;;;;;;5052605;28;20053;-60
2023/09/08 06:19:04;;;;;;;4.43;2.90;;;;;;;;;;5052434;28;20049;-60
2023/09/08 06:21:30;;;;;;;3.95;2.50;;;;;;;;;;5052732;28;20053;-60
2023/09/08 06:23:58;;;;;;;4.60;3.10;;;;;;;;;;5052364;28;20057;-60
2023/09/08 06:26:24;;;;;;;3.90;3.08;;;;;;;;;;5052290;28;20059;-60
2023/09/08 06:28:51;;;;;;;4.75;2.88;;;;;;;;;;5052122;28;20049;-60
2023/09/08 06:31:18;;;;;;;4.80;2.53;;;;;;;;;;5052317;28;20056;-60
2023/09/08 06:33:46;;;;;;;4.93;3.20;;;;;;;;;;5052727;28;20053;-59
2023/09/08 06:36:13;;;;;;;4.35;3.25;;;;;;;;;;5052071;28;20056;-59
2023/09/08 06:38:39;;;;;;;4.85;3.30;;;;;;;;;;5052830;28;20045;-59
2023/09/08 06:41:09;;;;;;;4.63;3.17;;;;;;;;;;5052644;28;20072;-60
2023/09/08 06:43:36;;;;;;;5.05;2.97;;;;;;;;;;5052667;28;20383;-60
2023/09/08 06:46:03;;;;;;;4.57;3.05;;;;;;;;;;5052174;28;20489;-59
2023/09/08 06:48:30;;;;;;;4.68;3.10;;;;;;;;;;5052491;28;20375;-59
2023/09/08 06:50:57;;;;;;;11.77;3.45;;;;;;;;;;5052667;28;20057;-59
2023/09/08 06:53:24;;;;;;;5.40;3.50;;;;;;;;;;5052469;28;20434;-59
2023/09/08 06:55:50;;;;;;;4.65;3.45;;;;;;;;;;5052412;28;20052;-60
2023/09/08 06:58:17;;;;;;;6.13;2.75;;;;;;;;;;5052612;28;20064;-59
2023/09/08 07:00:44;;;;;;;11.70;3.92;;;;;;;;;;5052394;28;20128;-59
2023/09/08 07:03:11;;;;;;;5.07;3.92;;;;;;;;;;5052161;28;20072;-59
2023/09/08 07:05:40;;;;;;;6.60;3.45;;;;;;;;;;5052115;28;20071;-59
2023/09/08 07:08:08;;;;;;;5.00;2.95;;;;;;;;;;5052371;28;20060;-59
2023/09/08 07:10:35;;;;;;;4.40;2.83;;;;;;;;;;5063244;28;20060;-59
2023/09/08 07:13:02;;;;;;;6.30;3.10;;;;;;;;;;5072274;28;20056;-59
2023/09/08 07:15:28;;;;;;;6.28;3.20;;;;;;;;;;5071859;28;20488;-59
2023/09/08 07:17:55;;;;;;;3.65;2.50;;;;;;;;;;5072171;28;20489;-59
2023/09/08 07:20:22;;;;;;;3.83;2.42;;;;;;;;;;5072045;28;20052;-59
2023/09/08 07:22:49;;;;;;;6.75;3.28;;;;;;;;;;5071442;28;20413;-59
2023/09/08 07:25:17;;;;;;;4.05;2.67;;;;;;;;;;5071697;28;20053;-59
2023/09/08 07:27:44;;;;;;;4.43;3.03;;;;;;;;;;5072340;28;20489;-59
2023/09/08 07:30:11;;;;;;;5.07;3.33;;;;;;;;;;5075335;28;20057;-58
2023/09/08 07:32:38;;;;;;;6.40;3.13;;;;;;;;;;5075085;28;20402;-57
2023/09/08 07:35:05;;;;;;;6.38;3.63;;;;;;;;;;5075225;28;20052;-58
2023/09/08 07:37:31;;;;;;;3.47;2.90;;;;;;;;;;5075417;28;20461;-58
2023/09/08 07:39:58;;;;;;;2.53;2.00;;;;;;;;;;5075427;28;20060;-58
2023/09/08 07:42:27;;;;;;;3.00;1.70;;;;;;;;;;5075570;28;20056;-58
2023/09/08 07:44:53;;;;;;;;;;;;;;;;;;5075401;28;20060;-58
2023/09/08 07:47:20;;;;;;;3.00;1.98;;;;;;;;;;5075256;28;19927;-59
2023/09/08 07:49:47;;;;;;;3.80;1.98;;;;;;;;;;5075505;28;20056;-58
2023/09/08 07:52:14;;;;;;;3.53;2.10;;;;;;;;;;5075232;28;20052;-58
2023/09/08 07:54:41;;;;;;;2.58;1.88;;;;;;;;;;5075462;28;20048;-58
2023/09/08 07:57:08;;;;;;;3.08;1.95;;;;;;;;;;5074912;28;20056;-58
2023/09/08 07:59:36;;;;;;;8.45;2.53;;;;;;;;;;5075083;28;20401;-58
2023/09/08 08:02:02;;;;;;;;;;;;;;;;;;5075559;28;20052;-58
2023/09/08 08:04:29;;;;;;;3.65;2.17;;;;;;;;;;5074874;28;19928;-58
2023/09/08 08:06:56;;;;;;;3.03;2.15;;;;;;;;;;5074696;28;20057;-58
2023/09/08 08:09:22;;;;;;;2.10;1.50;;;;;;;;;;5074508;28;20048;-58
2023/09/08 08:11:50;;;;;;;3.70;2.10;;;;;;;;;;5074619;28;20052;-59
2023/09/08 08:14:16;;;;;;;5.03;1.77;;;;;;;;;;5075094;28;20059;-58
2023/09/08 08:16:45;;;;;;;3.08;2.00;;;;;;;;;;5074376;28;20474;-59
2023/09/08 08:19:11;;;;;;;3.05;2.10;;;;;;;;;;5074708;28;20481;-58
2023/09/08 08:21:41;;;;;;;3.10;1.90;;;;;;;;;;5074304;28;20060;-59
2023/09/08 08:24:08;;;;;;;3.65;1.40;;;;;;;;;;5074692;28;20056;-59
2023/09/08 08:26:35;;;;;;;2.65;1.85;;;;;;;;;;5074432;28;20056;-59
2023/09/08 08:29:03;;;;;;;2.83;2.30;;;;;;;;;;5074752;28;20044;-59
2023/09/08 08:31:30;;;;;;;3.33;2.30;;;;;;;;;;5073979;28;20056;-59
2023/09/08 08:33:58;;;;;;;2.03;1.60;;;;;;;;;;5074147;28;20060;-59
2023/09/08 08:36:25;;;;;;;2.97;1.90;;;;;;;;;;5073882;28;20063;-59
2023/09/08 08:38:51;;;;;;;2.60;2.20;;;;;;;;;;5073906;28;20048;-59
2023/09/08 08:41:18;;;;;;;3.67;1.87;;;;;;;;;;5073396;28;20067;-59
2023/09/08 08:43:45;;;;;;;3.50;1.80;;;;;;;;;;5074472;28;20059;-59
2023/09/08 08:46:12;;;;;;;6.75;2.22;;;;;;;;;;5074372;28;20512;-59
2023/09/08 08:48:41;;;;;;;2.50;1.70;;;;;;;;;;5074253;28;20512;-59
2023/09/08 08:51:11;;;;;;;2.70;2.13;;;;;;;;;;5074132;28;20409;-59
2023/09/08 08:53:38;;;;;;;2.55;1.95;;;;;;;;;;5073682;28;20048;-59
2023/09/08 08:56:06;;;;;;;;;;;;;;;;;;5074712;28;20067;-59
2023/09/08 08:58:32;;;;;;;2.78;1.77;;;;;;;;;;5074413;28;20258;-59
2023/09/08 09:01:00;;;;;;;3.10;1.90;;;;;;;;;;5074005;28;20504;-59
2023/09/08 09:03:26;;;;;;;;;;;;;;;;;;5074702;28;20052;-59
2023/09/08 09:05:53;;;;;;;2.05;1.40;;;;;;;;;;5069307;28;19921;-59
2023/09/08 09:08:23;;;;;;;2.75;1.45;;;;;;;;;;5073770;28;20052;-59
2023/09/08 09:10:50;;;;;;;1.73;1.20;;;;;;;;;;5073416;28;20052;-59
2023/09/08 09:13:17;;;;;;;3.17;1.38;;;;;;;;;;5073833;28;20048;-59
2023/09/08 09:15:44;;;;;;;1.85;1.40;;;;;;;;;;5073955;28;20048;-60
2023/09/08 09:18:10;;;;;;;2.72;1.45;;;;;;;;;;5073586;28;20052;-59
2023/09/08 09:20:37;;;;;;;2.30;1.65;;;;;;;;;;5073170;28;20060;-60
2023/09/08 09:23:04;;;;;;;2.20;1.55;;;;;;;;;;5073528;28;20048;-59
2023/09/08 09:25:32;;;;;;;2.97;1.40;;;;;;;;;;5073288;28;20053;-60
2023/09/08 09:27:59;;;;;;;2.90;1.80;;;;;;;;;;5073599;28;20106;-59
2023/09/08 09:30:27;;;;;;;1.90;1.50;;;;;;;;;;5073773;28;20056;-59
2023/09/08 09:32:53;;;;;;;;;;;;;;;;;;5073706;28;20508;-59
2023/09/08 09:35:20;;;;;;;2.28;1.70;;;;;;;;;;5073139;28;19920;-59
2023/09/08 09:37:48;;;;;;;2.63;1.40;;;;;;;;;;5073281;28;20056;-60
2023/09/08 09:40:14;;;;;;;4.22;1.63;;;;;;;;;;5072994;28;20048;-60
2023/09/08 09:42:43;;;;;;;2.75;1.70;;;;;;;;;;5072911;28;20485;-60
2023/09/08 09:45:10;;;;;;;2.28;1.45;;;;;;;;;;5072731;28;20057;-60
2023/09/08 09:47:37;;;;;;;3.40;1.77;;;;;;;;;;5073075;28;20048;-60
2023/09/08 09:50:04;;;;;;;3.40;1.65;;;;;;;;;;5072962;28;20053;-60
2023/09/08 09:52:31;;;;;;;2.00;1.50;;;;;;;;;;5072181;28;20060;-59
2023/09/08 09:54:59;;;;;;;2.40;2.10;;;;;;;;;;5073025;28;20063;-59
2023/09/08 09:57:26;;;;;;;2.30;1.73;;;;;;;;;;5072817;28;20059;-60
2023/09/08 09:59:54;;;;;;;2.05;1.55;;;;;;;;;;5072555;28;20052;-60
2023/09/08 10:02:21;;;;;;;2.30;1.65;;;;;;;;;;5072788;28;20483;-60
2023/09/08 10:04:47;;;;;;;;;;;;;;;;;;5073380;28;20489;-60
2023/09/08 10:07:15;;;;;;;2.78;1.40;;;;;;;;;;5072707;28;20264;-60
2023/09/08 10:09:42;;;;;;;1.83;1.42;;;;;;;;;;5072456;28;20053;-60
2023/09/08 10:12:08;;;;;;;;;;;;;;;;;;5073044;28;20063;-60
2023/09/08 10:14:35;;;;;;;;;;;;;;;;;;5073357;28;19920;-60
2023/09/08 10:17:01;;;;;;;;;;;;;;;;;;5073255;28;19994;-60
2023/09/08 10:19:30;;;;;;;2.55;1.50;;;;;;;;;;5072607;28;19935;-60
2023/09/08 10:22:03;;;;;;;2.70;2.05;;;;;;;;;;5072490;28;20055;-60
2023/09/08 10:24:33;;;;;;;2.30;1.65;;;;;;;;;;5072846;28;20052;-60
2023/09/08 10:27:03;;;;;;;2.38;1.60;;;;;;;;;;5072325;28;20052;-60
2023/09/08 10:29:30;;;;;;;2.25;1.73;;;;;;;;;;5072173;28;20055;-60
2023/09/08 10:31:58;;;;;;;3.35;1.90;;;;;;;;;;5072236;28;20409;-60
2023/09/08 10:34:25;;;;;;;3.60;1.70;;;;;;;;;;5072185;28;20056;-60
2023/09/08 10:36:53;;;;;;;1.90;1.50;;;;;;;;;;5072241;28;20064;-59
2023/09/08 10:39:30;;;;;;;2.03;1.42;;;;;;;;;;5071873;28;20059;-58
2023/09/08 10:42:25;;;;;;;2.42;1.77;;;;;;;;;;5072260;28;20053;-59
2023/09/08 10:44:59;;;;;;;2.10;1.58;;;;;;;;;;5036111;28;20394;-61
2023/09/08 10:47:26;;;;;;;1.88;1.30;;;;;;;;;;5072459;28;20048;-59
2023/09/08 10:49:56;;;;;;;1.90;1.40;;;;;;;;;;5072299;28;20059;-60
2023/09/08 10:52:25;;;;;;;1.98;1.70;;;;;;;;;;5072354;28;20075;-60
2023/09/08 10:54:52;;;;;;;1.85;1.45;;;;;;;;;;5072708;28;20079;-60
2023/09/08 10:57:21;;;;;;;2.33;1.80;;;;;;;;;;5072351;28;20061;-60
2023/09/08 10:59:52;;;;;;;1.83;1.50;;;;;;;;;;5072165;28;20059;-61
2023/09/08 11:02:35;;;;;;;1.80;1.40;;;;;;;;;;5072498;28;20059;-60
2023/09/08 11:05:03;;;;;;;2.10;1.58;;;;;;;;;;5075929;28;20055;-60
2023/09/08 11:07:31;;;;;;;1.95;1.20;;;;;;;;;;5075693;28;20053;-60
2023/09/08 11:09:58;;;;;;;1.70;1.40;;;;;;;;;;5075909;28;20509;-60
2023/09/08 11:12:24;;;;;;;;;;;;;;;;;;5076725;28;20064;-60
2023/09/08 11:14:51;;;;;;;3.22;1.92;;;;;;;;;;5076054;28;19921;-60
2023/09/08 11:17:17;;;;;;;;;;;;;;;;;;5076047;28;20052;-60
2023/09/08 11:19:46;;;;;;;2.50;1.55;;;;;;;;;;5075729;28;19927;-60
2023/09/08 11:22:13;;;;;;;1.83;1.30;;;;;;;;;;5075932;28;20052;-60
2023/09/08 11:24:42;;;;;;;2.70;1.50;;;;;;;;;;5075719;28;20383;-60
2023/09/08 11:27:09;;;;;;;3.05;1.60;;;;;;;;;;5075765;28;20477;-60
2023/09/08 11:29:36;;;;;;;2.40;1.60;;;;;;;;;;5075723;28;20049;-60
2023/09/08 11:32:03;;;;;;;2.25;1.75;;;;;;;;;;5075905;28;20430;-60
2023/09/08 11:34:30;;;;;;;2.05;1.50;;;;;;;;;;5075638;28;20053;-60
2023/09/08 11:36:57;;;;;;;2.60;1.77;;;;;;;;;;5075011;28;20063;-60
2023/09/08 11:39:25;;;;;;;1.77;1.50;;;;;;;;;;5075232;28;20056;-60
2023/09/08 11:41:53;;;;;;;1.70;1.35;;;;;;;;;;5075249;28;20051;-60
2023/09/08 11:44:20;;;;;;;2.10;1.80;;;;;;;;;;5075214;28;20063;-60
2023/09/08 11:46:48;;;;;;;2.00;1.80;;;;;;;;;;5075458;28;20067;-60
2023/09/08 11:49:15;;;;;;;1.70;1.40;;;;;;;;;;5075485;28;20048;-60
2023/09/08 11:51:41;;;;;;;2.15;1.42;;;;;;;;;;5074943;28;20068;-61
2023/09/08 11:54:08;;;;;;;2.20;1.52;;;;;;;;;;5075680;28;20059;-61
2023/09/08 11:56:35;;;;;;;2.80;1.63;;;;;;;;;;5075344;28;20059;-60
2023/09/08 11:59:03;;;;;;;2.22;1.67;;;;;;;;;;5074896;28;20068;-60
2023/09/08 12:01:30;;;;;;;2.13;1.40;;;;;;;;;;5074690;28;20048;-61
2023/09/08 12:03:57;;;;;;;2.17;1.60;;;;;;;;;;5075248;28;20056;-60
2023/09/08 12:06:25;;;;;;;2.13;1.45;;;;;;;;;;5075002;28;20052;-61
2023/09/08 12:08:52;;;;;;;1.83;1.40;;;;;;;;;;5074859;28;20056;-61
2023/09/08 12:11:18;;;;;;;2.08;1.58;;;;;;;;;;5075022;28;20048;-61
2023/09/08 12:13:45;;;;;;;1.80;1.60;;;;;;;;;;5074914;28;20048;-61
2023/09/08 12:16:20;;;;;;;1.85;1.40;;;;;;;;;;5074674;28;20075;-60
2023/09/08 12:18:47;;;;;;;1.95;1.52;;;;;;;;;;5075150;28;20404;-61
2023/09/08 12:21:14;;;;;;;1.90;1.65;;;;;;;;;;5074286;28;20044;-61
2023/09/08 12:23:51;;;;;;;3.17;1.48;;;;;;;;;;5075106;28;20056;-61
2023/09/08 12:26:18;;;;;;;2.65;1.60;;;;;;;;;;5074341;28;20052;-60
2023/09/08 12:28:49;;;;;;;2.00;1.65;;;;;;;;;;5075004;28;20057;-61
2023/09/08 12:31:19;;;;;;;2.00;1.50;;;;;;;;;;5073634;28;20055;-60
2023/09/08 12:33:48;;;;;;;2.03;1.83;;;;;;;;;;5074309;28;20056;-60
2023/09/08 12:36:22;;;;;;;1.60;1.38;;;;;;;;;;5074094;28;20056;-61
2023/09/08 12:38:51;;;;;;;1.67;1.40;;;;;;;;;;5074768;28;20056;-61
2023/09/08 12:41:21;;;;;;;2.60;1.75;;;;;;;;;;5074545;28;20115;-61
2023/09/08 12:43:51;;;;;;;2.25;1.50;;;;;;;;;;5074715;28;20060;-61
2023/09/08 12:46:22;;;;;;;1.80;1.33;;;;;;;;;;5074134;28;20059;-61
2023/09/08 12:48:50;;;;;;;2.08;1.50;;;;;;;;;;5074269;28;20052;-61
2023/09/08 12:51:17;;;;;;;1.98;1.77;;;;;;;;;;5073774;28;20386;-61
2023/09/08 12:53:44;;;;;;;2.45;1.73;;;;;;;;;;5074196;28;20052;-61
2023/09/08 12:56:11;;;;;;;2.80;1.60;;;;;;;;;;5074217;28;20052;-61
2023/09/08 12:58:38;;;;;;;3.03;1.75;;;;;;;;;;5074143;28;20486;-60
2023/09/08 13:01:06;;;;;;;2.30;1.42;;;;;;;;;;5074265;28;20071;-61
2023/09/08 13:03:33;;;;;;;4.10;1.55;;;;;;;;;;5074171;28;20063;-60
2023/09/08 13:06:01;;;;;;;1.70;1.40;;;;;;;;;;5073658;28;20048;-60
2023/09/08 13:08:32;;;;;;;2.72;1.50;;;;;;;;;;5073901;28;20048;-60
2023/09/08 13:10:59;;;;;;;2.28;1.48;;;;;;;;;;5073560;28;20052;-60
2023/09/08 13:13:26;;;;;;;;;;;;;;;;;;5074265;28;20059;-60
2023/09/08 13:15:53;;;;;;;2.03;1.60;;;;;;;;;;5073668;28;19924;-60
2023/09/08 13:18:20;;;;;;;;;;;;;;;;;;5073726;28;20067;-60
2023/09/08 13:20:46;;;;;;;2.40;1.70;;;;;;;;;;5073571;28;19920;-60
2023/09/08 13:23:15;;;;;;;3.35;1.50;;;;;;;;;;5073476;28;20060;-60
2023/09/08 13:25:44;;;;;;;2.88;1.35;;;;;;;;;;5072508;28;20048;-60
2023/09/08 13:28:14;;;;;;;2.00;1.48;;;;;;;;;;5072035;28;20052;-60
2023/09/08 13:30:41;;;;;;;3.58;2.30;;;;;;;;;;5073341;28;20048;-60
2023/09/08 13:33:10;;;;;;;2.05;1.50;;;;;;;;;;5073396;28;20052;-60
2023/09/08 13:35:38;;;;;;;1.92;1.30;;;;;;;;;;5073395;28;20060;-60
2023/09/08 13:38:07;;;;;;;1.70;1.30;;;;;;;;;;5073227;28;20075;-60
2023/09/08 13:40:41;;;;;;;1.95;1.30;;;;;;;;;;5072341;28;20048;-60
2023/09/08 13:43:08;;;;;;;2.35;1.40;;;;;;;;;;5072997;28;20095;-60
2023/09/08 13:45:35;;;;;;;4.13;1.42;;;;;;;;;;5073187;28;20052;-60
2023/09/08 13:48:06;;;;;;;1.88;1.30;;;;;;;;;;5073177;28;20052;-60
2023/09/08 13:50:35;;;;;;;3.72;1.83;;;;;;;;;;5072576;28;20091;-60
2023/09/08 13:53:05;;;;;;;2.38;1.40;;;;;;;;;;5073278;28;20060;-60
2023/09/08 13:55:32;;;;;;;1.73;1.17;;;;;;;;;;5072500;28;20056;-60
2023/09/08 13:57:59;;;;;;;;;;;;;;;;;;5072768;28;20059;-60
2023/09/08 14:00:27;;;;;;;2.75;1.50;;;;;;;;;;5073112;28;19928;-60
2023/09/08 14:02:54;;;;;;;2.35;1.40;;;;;;;;;;5072301;28;20052;-60
2023/09/08 14:05:20;;;;;;;1.60;1.10;;;;;;;;;;5072796;28;20063;-60
2023/09/08 14:07:47;;;;;;;2.58;1.25;;;;;;;;;;5072423;28;20061;-60
2023/09/08 14:10:14;;;;;;;2.10;1.30;;;;;;;;;;5072759;28;20056;-60
2023/09/08 14:12:41;;;;;;;4.35;1.55;;;;;;;;;;5072838;28;20389;-60
2023/09/08 14:15:08;;;;;;;2.45;1.45;;;;;;;;;;5072637;28;20059;-60
2023/09/08 14:17:36;;;;;;;2.72;1.70;;;;;;;;;;5072037;28;20056;-60
2023/09/08 14:20:05;;;;;;;2.50;1.65;;;;;;;;;;5072434;28;20057;-60
2023/09/08 14:22:32;;;;;;;3.80;1.88;;;;;;;;;;5072110;28;20044;-60
2023/09/08 14:24:59;;;;;;;3.43;1.57;;;;;;;;;;5072327;28;20079;-60
2023/09/08 14:27:25;;;;;;;2.20;1.37;;;;;;;;;;5072352;28;20055;-60
2023/09/08 14:29:52;;;;;;;2.38;1.25;;;;;;;;;;5072279;28;20053;-60
2023/09/08 14:32:19;;;;;;;1.80;1.20;;;;;;;;;;5072178;28;20044;-60
2023/09/08 14:34:47;;;;;;;1.88;1.42;;;;;;;;;;5072102;28;20417;-60
2023/09/08 14:37:14;;;;;;;2.17;1.55;;;;;;;;;;5073511;28;20064;-60
2023/09/08 14:39:40;;;;;;;2.97;1.42;;;;;;;;;;5076804;28;20063;-60
2023/09/08 14:42:09;;;;;;;3.13;1.40;;;;;;;;;;5076438;28;20389;-60
2023/09/08 14:44:36;;;;;;;3.65;1.63;;;;;;;;;;5076174;28;20409;-60
2023/09/08 14:47:03;;;;;;;2.80;1.10;;;;;;;;;;5076349;28;20067;-59
2023/09/08 14:49:29;;;;;;;2.30;1.45;;;;;;;;;;5076482;28;20064;-60
2023/09/08 14:51:58;;;;;;;3.78;1.52;;;;;;;;;;5075943;28;20053;-60